Preview of NWS' New Version of Forecast
This preview is not operational and should not be used for support decisions.

METAR Formatted Surface Weather Observation (MTR)

Issued by National Weather Service (NWS)

                            
000
SAUS45 KGGW 221549
MTRJDN
METAR KJDN 221548Z AUTO 13016G22KT 25/13 A3024 RMK AO1 SLP227 
T02500128